Time;durP1;ratioP1;P1;durP2;ratioP2;P2;SDS_P1;SDS_P2;PMS_P1;PMS_P2;Temp;Humidity;BMP_temperature;BMP_pressure;BME280_temperature;BME280_humidity;BME280_pressure;Samples;Min_cycle;Max_cycle;Signal;HPM_P1;HPM_P2
2023/10/11 00:02:51;;;;;;;4.80;2.70;;;;;;;15.75;80.52;101391.13;5032617;28;20044;-80
2023/10/11 00:05:17;;;;;;;4.93;3.00;;;;;;;15.72;80.21;101385.13;5033466;28;20125;-81
2023/10/11 00:07:44;;;;;;;5.50;3.20;;;;;;;15.74;80.54;101383.34;5033539;28;20036;-80
2023/10/11 00:10:10;;;;;;;;;;;;;;;15.75;80.88;101390.28;5032967;28;20025;-80
2023/10/11 00:12:41;;;;;;;7.80;3.08;;;;;;;15.71;80.09;101386.03;5033672;28;19921;-80
2023/10/11 00:15:10;;;;;;;4.82;2.60;;;;;;;15.68;80.76;101380.88;5033671;28;20029;-80
2023/10/11 00:17:39;;;;;;;6.55;3.13;;;;;;;15.64;80.65;101384.50;5032887;28;20029;-80
2023/10/11 00:20:19;;;;;;;5.90;2.90;;;;;;;15.59;80.57;101385.47;5033689;28;20029;-80
2023/10/11 00:22:45;;;;;;;6.20;3.20;;;;;;;15.56;80.66;101385.56;5033113;28;20025;-80
2023/10/11 00:25:23;;;;;;;5.03;3.03;;;;;;;15.55;80.46;101381.22;5031747;28;20378;-80
2023/10/11 00:27:49;;;;;;;4.20;2.50;;;;;;;15.53;80.78;101371.69;5033056;28;20156;-80
2023/10/11 00:30:17;;;;;;;3.45;2.28;;;;;;;15.54;80.78;101369.03;5032379;28;20017;-81
2023/10/11 00:32:44;;;;;;;5.15;2.70;;;;;;;15.50;80.26;101369.16;5033298;28;20386;-80
2023/10/11 00:35:18;;;;;;;7.15;3.20;;;;;;;15.50;80.22;101371.78;5032816;28;20025;-80
2023/10/11 00:37:44;;;;;;;6.20;3.10;;;;;;;15.47;80.45;101366.66;5032559;28;20083;-81
2023/10/11 00:40:13;;;;;;;5.00;2.85;;;;;;;15.49;80.58;101372.69;5033008;28;20075;-80
2023/10/11 00:42:39;;;;;;;5.25;2.85;;;;;;;15.48;80.84;101378.84;5033063;28;20022;-81
2023/10/11 00:45:07;;;;;;;4.37;2.73;;;;;;;15.48;80.65;101386.69;5031993;28;20083;-80
2023/10/11 00:47:40;;;;;;;4.05;2.67;;;;;;;15.46;80.97;101372.78;5032291;28;20025;-80
2023/10/11 00:50:14;;;;;;;4.40;2.58;;;;;;;15.41;80.81;101367.69;5032134;28;20033;-81
2023/10/11 00:52:41;;;;;;;6.93;3.00;;;;;;;15.41;81.00;101376.38;5032205;28;20030;-81
2023/10/11 00:55:16;;;;;;;5.88;3.10;;;;;;;15.38;80.95;101381.66;5032517;28;20093;-80
2023/10/11 00:57:42;;;;;;;6.40;3.30;;;;;;;15.36;81.06;101382.63;5032994;28;20026;-80
2023/10/11 01:00:13;;;;;;;6.15;3.17;;;;;;;15.34;81.24;101377.44;5031599;28;20048;-80
2023/10/11 01:02:38;;;;;;;5.28;2.90;;;;;;;15.31;81.29;101368.81;5032703;28;20400;-80
2023/10/11 01:05:06;;;;;;;5.47;3.00;;;;;;;15.29;81.20;101368.84;5032612;28;20104;-81
2023/10/11 01:07:34;;;;;;;5.30;2.70;;;;;;;15.25;81.53;101365.47;5031909;28;20030;-80
2023/10/11 01:09:59;;;;;;;5.00;2.90;;;;;;;15.22;81.52;101364.69;5032667;28;20022;-80
2023/10/11 01:12:24;;;;;;;3.93;2.63;;;;;;;15.17;81.42;101364.81;5031618;28;20037;-80
2023/10/11 01:14:59;;;;;;;3.43;2.50;;;;;;;15.19;81.63;101367.38;5032561;28;20099;-81
2023/10/11 01:17:34;;;;;;;3.90;2.58;;;;;;;15.16;82.02;101368.31;5032131;28;20079;-81
2023/10/11 01:20:00;;;;;;;2.90;2.30;;;;;;;15.14;81.94;101364.88;5031986;28;20021;-80
2023/10/11 01:22:28;;;;;;;4.10;2.40;;;;;;;15.08;82.19;101362.44;5032189;28;20108;-80
2023/10/11 01:24:55;;;;;;;6.88;3.03;;;;;;;15.03;82.36;101354.69;5032466;28;20024;-80
2023/10/11 01:27:30;;;;;;;5.35;2.80;;;;;;;15.01;82.28;101356.50;5031295;28;20363;-80
2023/10/11 01:29:57;;;;;;;7.35;3.28;;;;;;;15.01;82.39;101363.47;5032303;28;20483;-80
2023/10/11 01:32:22;;;;;;;6.10;2.95;;;;;;;14.98;82.30;101359.19;5032248;28;20053;-80
2023/10/11 01:34:47;;;;;;;4.77;2.73;;;;;;;14.95;82.49;101361.88;5031663;28;20056;-80
2023/10/11 01:37:13;;;;;;;5.40;2.90;;;;;;;14.89;83.58;101355.06;5032142;28;20416;-80
2023/10/11 01:39:38;;;;;;;4.67;2.90;;;;;;;14.87;82.87;101356.00;5032515;28;20068;-80
2023/10/11 01:42:04;;;;;;;3.40;2.27;;;;;;;14.85;83.01;101350.81;5034702;28;20466;-81
2023/10/11 01:44:31;;;;;;;5.43;2.90;;;;;;;14.81;82.73;101347.41;5036509;28;20045;-80
2023/10/11 01:46:57;;;;;;;5.35;3.05;;;;;;;14.80;83.72;101347.44;5036307;28;20084;-80
2023/10/11 01:49:25;;;;;;;6.70;3.10;;;;;;;14.79;83.22;101345.72;5034162;28;20049;-80
2023/10/11 01:51:52;;;;;;;8.43;3.55;;;;;;;14.77;83.70;101344.91;5035768;28;20033;-80
2023/10/11 01:54:22;;;;;;;5.30;3.03;;;;;;;14.75;83.67;101341.50;5035892;28;20013;-81
2023/10/11 01:56:47;;;;;;;5.53;3.25;;;;;;;14.71;84.29;101335.47;5034764;28;20538;-80
2023/10/11 01:59:12;;;;;;;5.00;2.97;;;;;;;14.74;83.61;101337.16;5035681;28;20041;-80
2023/10/11 02:01:41;;;;;;;7.53;3.37;;;;;;;14.71;84.38;101334.63;5035394;28;20087;-80
2023/10/11 02:04:28;;;;;;;6.10;3.13;;;;;;;14.70;84.28;101330.28;5035671;28;20108;-80
2023/10/11 02:06:54;;;;;;;6.57;3.28;;;;;;;14.67;84.32;101321.63;5035885;28;20072;-80
2023/10/11 02:09:21;;;;;;;7.60;3.57;;;;;;;14.61;84.92;101310.44;5034612;28;20022;-80
2023/10/11 02:11:51;;;;;;;6.05;3.03;;;;;;;14.58;84.67;101315.75;5035816;28;20438;-80
2023/10/11 02:14:18;;;;;;;4.90;2.90;;;;;;;14.51;85.05;101308.06;5035134;28;20450;-80
2023/10/11 02:16:44;;;;;;;4.53;2.67;;;;;;;14.52;84.61;101324.59;5034770;28;20026;-80
2023/10/11 02:19:09;;;;;;;6.63;3.30;;;;;;;14.44;84.74;101309.09;5034795;28;20026;-80
2023/10/11 02:21:36;;;;;;;6.47;3.30;;;;;;;14.44;85.24;101300.41;5035160;28;20108;-80
2023/10/11 02:24:05;;;;;;;5.65;3.10;;;;;;;14.41;85.19;101301.34;5034710;28;20473;-80
2023/10/11 02:26:33;;;;;;;6.03;3.25;;;;;;;14.38;86.11;101288.34;5035474;28;20389;-80
2023/10/11 02:29:16;;;;;;;5.65;3.10;;;;;;;14.37;85.19;101299.69;5035515;28;20033;-80
2023/10/11 02:31:41;;;;;;;5.28;2.70;;;;;;;14.36;85.65;101311.03;5034732;28;20032;-81
2023/10/11 02:34:12;;;;;;;6.60;3.40;;;;;;;14.33;86.10;101303.28;5035041;28;20029;-80
2023/10/11 02:36:42;;;;;;;4.75;3.00;;;;;;;14.28;85.74;101294.69;5034836;28;20450;-80
2023/10/11 02:39:07;;;;;;;6.57;3.38;;;;;;;14.24;86.68;101301.75;5034899;28;20029;-81
2023/10/11 02:41:32;;;;;;;6.30;3.03;;;;;;;14.25;86.42;101300.84;5035289;28;20044;-80
2023/10/11 02:43:58;;;;;;;5.30;3.10;;;;;;;14.23;86.25;101300.03;5034459;28;20022;-80
2023/10/11 02:46:24;;;;;;;6.70;3.17;;;;;;;14.21;86.43;101304.41;5034830;28;20100;-80
2023/10/11 02:49:18;;;;;;;4.85;2.80;;;;;;;14.19;86.58;101308.81;5034328;28;20041;-80
2023/10/11 02:51:52;;;;;;;7.22;3.30;;;;;;;14.15;86.72;101308.03;5034047;28;20022;-81
2023/10/11 02:54:18;;;;;;;6.53;3.30;;;;;;;14.12;86.72;101302.03;5034738;28;20093;-80
2023/10/11 02:56:47;;;;;;;4.78;2.90;;;;;;;14.10;86.43;101301.19;5034521;28;20036;-80
2023/10/11 02:59:19;;;;;;;4.40;2.88;;;;;;;14.09;86.63;101302.06;5033850;28;20036;-80
2023/10/11 03:01:47;;;;;;;4.07;2.83;;;;;;;14.05;86.91;101306.53;5035218;28;20026;-80
2023/10/11 03:04:15;;;;;;;4.97;2.70;;;;;;;14.03;87.01;101296.13;5034492;28;20026;-80
2023/10/11 03:06:47;;;;;;;5.18;3.08;;;;;;;14.00;87.43;101290.13;5034269;28;20065;-80
2023/10/11 03:09:12;;;;;;;4.35;3.00;;;;;;;13.96;87.96;101291.91;5034485;28;20580;-80
2023/10/11 03:11:45;;;;;;;5.20;2.97;;;;;;;13.95;87.85;101292.84;5034488;28;20116;-80
2023/10/11 03:14:12;;;;;;;5.18;3.10;;;;;;;13.94;87.59;101282.41;5033701;28;20033;-80
2023/10/11 03:16:42;;;;;;;5.50;3.10;;;;;;;13.94;88.22;101279.81;5034538;28;20029;-80
2023/10/11 03:19:09;;;;;;;5.05;3.00;;;;;;;13.85;87.90;101255.66;5033539;28;20071;-80
2023/10/11 03:21:35;;;;;;;5.28;2.88;;;;;;;13.90;87.66;101272.03;5034368;28;20029;-80
2023/10/11 03:24:05;;;;;;;4.77;3.00;;;;;;;13.89;87.92;101275.56;5034299;28;20470;-80
2023/10/11 03:28:59;;;;;;;4.07;2.60;;;;;;;13.88;88.00;101279.06;5034244;28;20046;-80
2023/10/11 03:31:29;;;;;;;4.43;2.80;;;;;;;13.88;88.06;101280.78;5033520;28;20037;-80
2023/10/11 03:33:56;;;;;;;2.92;2.22;;;;;;;13.87;87.95;101282.56;5033240;28;20028;-80
2023/10/11 03:36:30;;;;;;;4.65;2.90;;;;;;;13.79;89.33;101270.56;5033697;28;20038;-80
2023/10/11 03:39:08;;;;;;;5.97;2.78;;;;;;;13.83;88.66;101278.28;5034296;28;20052;-80
2023/10/11 03:41:35;;;;;;;6.30;3.55;;;;;;;13.83;88.79;101280.06;5032529;28;20505;-81
2023/10/11 03:44:09;;;;;;;6.97;3.30;;;;;;;13.80;88.85;101278.34;5034192;28;20057;-81
2023/10/11 03:46:35;;;;;;;6.80;3.90;;;;;;;13.73;89.20;101268.94;5033853;28;20470;-80
2023/10/11 03:51:49;;;;;;;5.85;3.40;;;;;;;13.73;89.72;101263.72;4976974;28;20045;-80
2023/10/11 03:54:36;;;;;;;6.27;3.30;;;;;;;13.71;89.82;101269.00;5013212;28;20026;-80
2023/10/11 03:57:04;;;;;;;8.25;3.53;;;;;;;13.70;90.33;101264.66;5013647;28;20417;-81
2023/10/11 03:59:38;;;;;;;4.57;2.90;;;;;;;13.69;90.14;101269.91;5013943;28;20026;-80
2023/10/11 04:02:03;;;;;;;6.05;3.00;;;;;;;13.66;90.57;101268.22;5013135;28;20033;-80
2023/10/11 04:04:28;;;;;;;3.80;2.70;;;;;;;13.64;90.69;101267.38;5013613;28;20493;-80
2023/10/11 04:07:00;;;;;;;5.10;2.77;;;;;;;13.62;90.46;101265.72;5013789;28;20055;-80
2023/10/11 04:09:37;;;;;;;4.45;2.60;;;;;;;13.61;89.95;101267.47;5012825;28;20433;-80
2023/10/11 04:12:10;;;;;;;5.00;2.65;;;;;;;13.59;90.05;101258.81;5013359;28;20467;-80
2023/10/11 04:14:40;;;;;;;6.53;3.30;;;;;;;13.60;90.70;101265.75;5013836;28;20026;-80
2023/10/11 04:17:15;;;;;;;8.98;3.20;;;;;;;13.56;91.09;101253.66;5012955;28;20109;-80
2023/10/11 04:19:41;;;;;;;6.68;3.05;;;;;;;13.56;90.87;101249.31;5013721;28;20025;-80
2023/10/11 04:22:12;;;;;;;;;;;;;;;13.55;91.10;101241.50;5013723;28;20160;-80
2023/10/11 04:24:39;;;;;;;6.70;3.40;;;;;;;13.52;91.83;101247.66;5013563;28;20274;-80
2023/10/11 04:27:45;;;;;;;5.57;3.30;;;;;;;13.51;91.74;101248.56;5013094;28;20037;-80
2023/10/11 04:30:17;;;;;;;6.43;3.40;;;;;;;13.50;92.97;101243.38;5012358;28;20056;-81
2023/10/11 04:32:46;;;;;;;5.65;3.50;;;;;;;13.49;92.56;101241.66;5013330;28;20030;-80
2023/10/11 04:38:13;;;;;;;6.95;3.40;;;;;;;13.44;92.83;101244.38;4997955;28;20067;-80
2023/10/11 04:40:41;;;;;;;6.70;3.75;;;;;;;13.42;93.40;101246.97;5032876;28;20036;-80
2023/10/11 04:43:17;;;;;;;9.57;4.47;;;;;;;13.43;93.63;101253.91;5032428;28;20025;-80
2023/10/11 04:45:46;;;;;;;8.32;4.40;;;;;;;13.43;93.81;101240.03;5032804;28;20418;-80
2023/10/11 04:48:15;;;;;;;6.55;3.70;;;;;;;13.43;94.38;101250.47;5032309;28;20091;-81
2023/10/11 04:50:54;;;;;;;6.47;3.70;;;;;;;13.43;93.07;101247.84;5032169;28;20370;-81
2023/10/11 04:53:21;;;;;;;7.95;4.00;;;;;;;13.44;94.50;101247.81;5032519;28;20437;-80
2023/10/11 04:56:51;;;;;;;7.22;3.97;;;;;;;13.44;93.52;101247.81;5032753;28;20390;-80
2023/10/11 04:58:50;;;;;;;6.20;3.78;;;;;;;13.44;92.87;101253.03;5031533;28;20034;-81
2023/10/11 05:01:22;;;;;;;5.85;3.33;;;;;;;13.42;93.25;101259.19;5032355;28;20063;-80
2023/10/11 05:03:58;;;;;;;5.50;3.10;;;;;;;13.44;93.38;101267.84;5032965;28;20024;-80
2023/10/11 05:06:30;;;;;;;5.35;3.28;;;;;;;13.42;94.44;101267.00;5031561;28;20025;-80
2023/10/11 05:09:03;;;;;;;5.57;3.30;;;;;;;13.40;93.73;101253.13;5032862;28;20030;-80
2023/10/11 05:11:43;;;;;;;5.93;3.00;;;;;;;13.35;93.68;101245.38;5032045;28;20045;-80
2023/10/11 05:16:58;;;;;;;4.03;2.83;;;;;;;13.38;93.38;101257.47;5036125;28;20091;-80
2023/10/11 05:19:35;;;;;;;6.18;3.40;;;;;;;13.38;94.57;101252.25;5035925;28;20025;-80
2023/10/11 05:22:16;;;;;;;4.38;3.00;;;;;;;13.36;93.49;101261.84;5037168;28;20254;-80
2023/10/11 05:25:12;;;;;;;7.22;3.40;;;;;;;13.29;95.88;101264.59;5036818;28;20421;-80
2023/10/11 05:30:26;;;;;;;4.10;2.80;;;;;;;13.30;93.73;101275.88;5036710;28;20025;-80
2023/10/11 05:32:50;;;;;;;6.38;3.53;;;;;;;13.26;94.63;101279.44;5035293;28;20033;-80
2023/10/11 05:35:59;;;;;;;6.20;3.33;;;;;;;13.27;94.87;101274.19;5036039;28;20034;-80
2023/10/11 05:51:50;;;;;;;6.53;3.58;;;;;;;13.24;95.85;101273.41;5036283;28;20064;-80
2023/10/11 05:54:16;;;;;;;7.35;3.80;;;;;;;13.23;96.04;101275.13;5034226;28;20045;-82
2023/10/11 05:56:47;;;;;;;7.65;4.00;;;;;;;13.23;96.51;101269.91;5034091;28;20096;-78
2023/10/11 05:59:14;;;;;;;7.35;3.72;;;;;;;13.22;96.44;101273.44;5035210;28;20040;-80
2023/10/11 06:01:44;;;;;;;;;;;;;;;13.25;96.30;101275.13;5035687;28;20359;-79
2023/10/11 06:04:13;;;;;;;10.23;4.43;;;;;;;13.26;97.45;101282.06;5034649;28;20004;-80
2023/10/11 06:06:41;;;;;;;7.88;4.13;;;;;;;13.29;96.43;101287.19;5035369;28;20078;-82
2023/10/11 06:09:30;;;;;;;7.78;4.32;;;;;;;13.24;97.18;101257.75;5034523;28;20565;-81
2023/10/11 06:11:53;;;;;;;9.23;4.80;;;;;;;13.36;97.31;101277.50;5035114;28;20033;-81
2023/10/11 06:14:20;;;;;;;7.55;4.28;;;;;;;13.39;97.39;101273.13;5035336;28;20060;-83
2023/10/11 06:16:55;;;;;;;;;;;;;;;13.41;98.28;101266.13;5034816;28;20026;-81
2023/10/11 06:19:23;;;;;;;9.20;4.50;;;;;;;13.40;97.42;101261.78;5034451;28;20309;-81
2023/10/11 06:21:58;;;;;;;10.77;5.15;;;;;;;13.44;97.22;101268.69;5034912;28;20037;-82
2023/10/11 06:24:24;;;;;;;10.40;5.00;;;;;;;13.50;97.96;101272.91;5035274;28;20018;-82
2023/10/11 06:26:56;;;;;;;9.82;4.97;;;;;;;13.53;97.95;101269.38;5034955;28;20425;-81
2023/10/11 06:29:29;;;;;;;9.82;5.05;;;;;;;13.57;97.77;101264.06;5034342;28;20040;-78
2023/10/11 06:31:55;;;;;;;7.72;4.40;;;;;;;13.59;96.84;101261.44;5035147;28;20486;-78
2023/10/11 06:34:25;;;;;;;11.33;5.10;;;;;;;13.63;98.08;101265.66;5035143;28;20033;-86
2023/10/11 06:36:53;;;;;;;8.07;4.15;;;;;;;13.68;97.17;101269.06;5034425;28;20025;-85
2023/10/11 06:42:14;;;;;;;7.25;3.90;;;;;;;13.72;98.48;101268.09;5034517;28;20038;-82
2023/10/11 06:45:16;;;;;;;7.35;4.20;;;;;;;13.79;97.11;101281.00;5034675;28;20026;-82
2023/10/11 06:47:49;;;;;;;7.82;4.03;;;;;;;13.83;97.95;101285.28;5034575;28;20037;-80
2023/10/11 06:50:15;;;;;;;11.00;4.82;;;;;;;13.85;98.02;101276.50;5033991;28;20033;-80
2023/10/11 06:52:45;;;;;;;11.23;5.23;;;;;;;13.90;97.97;101284.22;5034921;28;20083;-80
2023/10/11 06:55:17;;;;;;;12.82;5.63;;;;;;;13.97;98.06;101284.97;5034586;28;20037;-81
2023/10/11 06:57:54;;;;;;;9.90;4.75;;;;;;;14.03;97.58;101285.69;5033940;28;20037;-84
2023/10/11 07:00:27;;;;;;;10.52;4.70;;;;;;;14.07;97.10;101283.84;5034369;28;20021;-82
2023/10/11 07:03:09;;;;;;;10.73;5.20;;;;;;;14.14;97.10;101292.41;5034696;28;20059;-83
2023/10/11 07:05:45;;;;;;;9.50;4.63;;;;;;;14.19;97.19;101288.81;5033773;28;20053;-83
2023/10/11 07:08:17;;;;;;;13.93;6.00;;;;;;;14.23;97.05;101289.56;5034259;28;20083;-83
2023/10/11 07:10:46;;;;;;;13.18;5.97;;;;;;;14.26;96.21;101292.13;5034641;28;20017;-83
2023/10/11 07:13:13;;;;;;;10.82;5.10;;;;;;;14.35;96.63;101306.72;5033490;28;20087;-83
2023/10/11 07:15:43;;;;;;;7.85;4.32;;;;;;;14.42;96.48;101312.63;5034491;28;20030;-84
2023/10/11 07:18:25;;;;;;;7.32;4.07;;;;;;;14.46;96.63;101314.28;5033565;28;20013;-83
2023/10/11 07:21:10;;;;;;;6.55;3.70;;;;;;;14.55;96.31;101319.28;5034517;28;20048;-83
2023/10/11 07:29:03;;;;;;;10.70;5.05;;;;;;;14.76;96.38;101328.38;5033981;28;20111;-83
2023/10/11 07:31:33;;;;;;;10.82;5.20;;;;;;;14.81;95.93;101331.72;5034411;28;20050;-82
2023/10/11 07:34:05;;;;;;;10.45;4.78;;;;;;;14.87;95.01;101330.72;5033324;28;20021;-83
2023/10/11 07:36:31;;;;;;;9.98;4.70;;;;;;;14.94;95.44;101334.91;5034156;28;20038;-80
2023/10/11 07:38:56;;;;;;;10.43;5.07;;;;;;;15.03;95.06;101346.00;5033496;28;20382;-80
2023/10/11 07:41:29;;;;;;;9.20;4.53;;;;;;;15.11;95.07;101339.69;5033092;28;20037;-78
2023/10/11 07:43:57;;;;;;;7.40;4.30;;;;;;;15.19;94.81;101336.88;5034056;28;20025;-77
2023/10/11 07:46:23;;;;;;;9.43;4.70;;;;;;;15.29;94.84;101327.00;5032793;28;20477;-78
2023/10/11 07:48:54;;;;;;;8.85;4.03;;;;;;;15.39;94.52;101332.84;5033054;28;20051;-78
2023/10/11 07:51:19;;;;;;;11.48;5.53;;;;;;;15.46;94.21;101323.94;5033414;28;20383;-79
2023/10/11 07:53:44;;;;;;;8.53;4.70;;;;;;;15.51;93.88;101319.44;5033034;28;20140;-77
2023/10/11 07:56:10;;;;;;;8.17;4.03;;;;;;;15.63;94.03;101331.28;5033630;28;20075;-78
2023/10/11 07:58:45;;;;;;;8.57;4.30;;;;;;;15.70;93.69;101322.38;5033876;28;20021;-78
2023/10/11 08:01:30;;;;;;;12.63;5.10;;;;;;;15.80;93.88;101332.59;5032051;28;20030;-77
2023/10/11 08:03:59;;;;;;;9.30;4.70;;;;;;;15.94;93.59;101332.19;5033361;28;20064;-78
2023/10/11 08:06:24;;;;;;;9.45;4.53;;;;;;;16.08;94.25;101337.88;5033279;28;20284;-78
2023/10/11 08:08:52;;;;;;;11.50;5.23;;;;;;;16.15;93.09;101330.69;5032516;28;20044;-79
2023/10/11 08:11:22;;;;;;;11.65;5.05;;;;;;;16.23;93.25;101330.44;5033226;28;20421;-78
2023/10/11 08:13:48;;;;;;;10.30;5.40;;;;;;;16.30;92.64;101330.19;5033282;28;20466;-78
2023/10/11 08:16:17;;;;;;;11.93;5.35;;;;;;;16.32;92.39;101331.00;5032236;28;20462;-79
2023/10/11 08:18:45;;;;;;;11.20;5.15;;;;;;;16.30;92.19;101322.34;5031742;28;20079;-78
2023/10/11 08:21:11;;;;;;;9.50;4.82;;;;;;;16.30;91.35;101330.19;5025881;28;20025;-78
2023/10/11 08:23:42;;;;;;;11.57;5.10;;;;;;;16.28;91.82;101339.88;5031726;28;20417;-77
2023/10/11 08:26:07;;;;;;;9.18;4.65;;;;;;;16.25;91.68;101339.97;5032701;28;20035;-78
2023/10/11 08:28:35;;;;;;;8.23;4.50;;;;;;;16.21;91.94;101338.34;5031975;28;20029;-78
2023/10/11 08:31:00;;;;;;;15.23;5.82;;;;;;;16.20;91.40;101345.38;5031493;28;20470;-78
2023/10/11 08:33:30;;;;;;;11.23;4.77;;;;;;;16.20;92.10;101347.97;5032986;28;20025;-80
2023/10/11 08:35:55;;;;;;;10.13;4.93;;;;;;;16.24;92.37;101348.75;5032340;28;20026;-80
2023/10/11 08:38:24;;;;;;;10.30;4.70;;;;;;;16.34;92.88;101339.69;5032945;28;20025;-80
2023/10/11 08:40:50;;;;;;;8.32;4.53;;;;;;;16.38;92.53;101344.84;5033055;28;20093;-80
2023/10/11 08:43:16;;;;;;;9.70;4.20;;;;;;;16.51;92.63;101357.50;5032151;28;20052;-80
2023/10/11 08:45:49;;;;;;;11.63;5.40;;;;;;;16.65;92.35;101350.94;5033321;28;20053;-80
2023/10/11 08:48:18;;;;;;;8.05;4.40;;;;;;;16.73;92.41;101350.66;5032340;28;20060;-76
2023/10/11 08:50:55;;;;;;;8.93;4.43;;;;;;;16.81;92.24;101351.28;5031966;28;20021;-81
2023/10/11 08:53:21;;;;;;;10.38;5.13;;;;;;;17.02;92.67;101351.50;5032384;28;20017;-80
2023/10/11 08:55:56;;;;;;;9.43;4.97;;;;;;;17.21;91.28;101349.09;5032794;28;20032;-80
2023/10/11 08:58:27;;;;;;;11.10;5.35;;;;;;;17.36;91.01;101352.94;5031625;28;20315;-80
2023/10/11 09:00:55;;;;;;;10.80;5.13;;;;;;;17.38;90.18;101359.84;5032416;28;20034;-80
2023/10/11 09:03:26;;;;;;;14.43;6.75;;;;;;;17.31;89.84;101370.59;5032338;28;20025;-80
2023/10/11 09:06:01;;;;;;;15.73;7.10;;;;;;;17.22;90.26;101363.94;5031946;28;20026;-80
2023/10/11 09:08:31;;;;;;;12.25;5.88;;;;;;;17.20;91.41;101366.59;5032495;28;20075;-80
2023/10/11 09:11:06;;;;;;;11.48;5.70;;;;;;;17.25;90.80;101369.94;5031555;28;20104;-81
2023/10/11 09:13:36;;;;;;;16.13;8.10;;;;;;;17.19;90.34;101371.91;5029609;28;20033;-80
2023/10/11 09:16:08;;;;;;;15.43;7.75;;;;;;;17.20;90.93;101371.84;5032708;28;20021;-80
2023/10/11 09:18:36;;;;;;;14.02;7.00;;;;;;;17.17;90.66;101376.34;5031817;28;20477;-80
2023/10/11 09:21:10;;;;;;;10.15;5.53;;;;;;;17.16;91.44;101361.50;5032518;28;20057;-80
2023/10/11 09:23:46;;;;;;;18.38;8.75;;;;;;;17.17;91.57;101357.97;5032733;28;20144;-80
2023/10/11 09:26:13;;;;;;;16.55;8.32;;;;;;;17.18;91.74;101373.66;5030332;28;20055;-80
2023/10/11 09:28:41;;;;;;;18.42;9.45;;;;;;;17.12;91.82;101366.84;5012505;28;20479;-80
2023/10/11 09:31:11;;;;;;;18.75;9.35;;;;;;;17.11;92.24;101375.63;5012394;28;20026;-80
2023/10/11 09:33:40;;;;;;;13.88;7.55;;;;;;;17.10;92.72;101380.94;5012150;28;20385;-81
2023/10/11 09:36:09;;;;;;;13.52;6.90;;;;;;;17.11;92.72;101374.78;5012333;28;20026;-80
2023/10/11 09:38:41;;;;;;;10.85;6.03;;;;;;;17.11;92.93;101377.41;5012606;28;20391;-81
2023/10/11 09:41:08;;;;;;;15.57;7.82;;;;;;;17.12;93.18;101382.59;5012607;28;20022;-80
2023/10/11 09:43:43;;;;;;;;;;;;;;;17.17;92.65;101392.06;5032480;28;20151;-80
2023/10/11 09:46:13;;;;;;;;;;;;;;;17.14;93.14;101386.03;5031514;28;20425;-80
2023/10/11 09:48:42;;;;;;;19.60;10.35;;;;;;;17.14;93.40;101385.19;5032096;28;19917;-80
2023/10/11 09:51:09;;;;;;;17.15;9.25;;;;;;;17.09;93.87;101368.72;5031204;28;20530;-80
2023/10/11 09:53:41;;;;;;;;;;;;;;;17.14;94.04;101382.56;5031699;28;20044;-80
2023/10/11 09:56:15;;;;;;;16.52;8.48;;;;;;;17.16;94.70;101392.97;5031724;28;19967;-81
2023/10/11 09:59:13;;;;;;;15.15;7.72;;;;;;;17.18;93.76;101381.53;5031862;28;20478;-78
2023/10/11 10:01:55;;;;;;;17.55;9.27;;;;;;;17.16;94.73;101392.97;5032574;28;20022;-81
2023/10/11 10:04:52;;;;;;;18.58;9.90;;;;;;;17.18;95.11;101383.31;5035327;28;20037;-80
2023/10/11 10:10:06;;;;;;;15.38;7.80;;;;;;;17.18;95.22;101381.53;5035554;28;20078;-80
2023/10/11 10:12:44;;;;;;;13.13;7.13;;;;;;;17.20;95.70;101399.84;5035263;28;20025;-78
2023/10/11 10:15:13;;;;;;;18.20;9.70;;;;;;;17.20;96.14;101391.97;5034174;28;20083;-80
2023/10/11 10:17:39;;;;;;;17.38;9.05;;;;;;;17.20;95.51;101397.22;5035286;28;20113;-81
2023/10/11 10:20:44;;;;;;;18.03;9.47;;;;;;;17.19;95.69;101398.97;5034891;28;20049;-83
2023/10/11 10:23:15;;;;;;;14.00;7.55;;;;;;;17.23;95.57;101402.34;5034263;28;20037;-80
2023/10/11 10:25:48;;;;;;;13.45;7.20;;;;;;;17.24;95.91;101394.44;5035577;28;20033;-81
2023/10/11 10:28:34;;;;;;;14.55;7.63;;;;;;;17.27;95.99;101385.59;5034305;28;20033;-80
2023/10/11 10:31:12;;;;;;;16.75;8.85;;;;;;;17.28;96.22;101392.56;5035361;28;20413;-81
2023/10/11 10:33:39;;;;;;;17.60;9.43;;;;;;;17.28;96.29;101380.28;5035308;28;20061;-81
2023/10/11 10:36:28;;;;;;;21.17;11.63;;;;;;;17.31;96.21;101375.84;5034398;28;20033;-81
2023/10/11 10:39:00;;;;;;;19.75;10.80;;;;;;;17.32;95.92;101378.44;5035337;28;20030;-80
2023/10/11 10:41:33;;;;;;;16.15;9.00;;;;;;;17.33;96.28;101374.91;5034470;28;20026;-81
2023/10/11 10:44:09;;;;;;;14.32;7.68;;;;;;;17.36;95.49;101380.03;5034226;28;20490;-80
2023/10/11 10:46:35;;;;;;;;;;;;;;;17.37;96.08;101380.91;5035524;28;20037;-81
2023/10/11 10:49:04;;;;;;;14.18;7.63;;;;;;;17.37;95.94;101386.16;5032879;28;19920;-80
2023/10/11 10:51:35;;;;;;;17.33;9.13;;;;;;;17.38;96.70;101390.50;5034998;28;20033;-80
2023/10/11 10:54:13;;;;;;;21.27;11.10;;;;;;;17.35;96.62;101391.44;5034890;28;20029;-81
2023/10/11 10:56:39;;;;;;;18.92;10.38;;;;;;;17.36;96.32;101384.44;5034017;28;20593;-80
2023/10/11 10:59:07;;;;;;;17.92;9.95;;;;;;;17.35;96.63;101386.19;5034441;28;20030;-80
2023/10/11 11:01:34;;;;;;;15.80;8.60;;;;;;;17.37;96.54;101387.00;5034620;28;20018;-80
2023/10/11 11:03:59;;;;;;;;;;;;;;;17.42;96.49;101392.06;5033785;28;20490;-80
2023/10/11 11:06:38;;;;;;;15.73;8.15;;;;;;;17.43;97.60;101381.53;5034109;28;19913;-80
2023/10/11 11:09:12;;;;;;;15.73;8.00;;;;;;;17.45;97.20;101387.56;5034129;28;20442;-80
2023/10/11 11:11:38;;;;;;;19.05;10.55;;;;;;;17.47;96.88;101394.53;5033553;28;20022;-80
2023/10/11 11:14:10;;;;;;;18.87;9.90;;;;;;;17.37;97.10;101368.63;5033057;28;20022;-81
2023/10/11 11:16:39;;;;;;;20.00;10.45;;;;;;;17.38;97.51;101365.09;5033956;28;20422;-80
2023/10/11 11:19:19;;;;;;;17.98;10.20;;;;;;;17.42;97.65;101352.72;5033234;28;20028;-80
2023/10/11 11:21:45;;;;;;;15.68;8.18;;;;;;;17.48;97.58;101357.75;5034404;28;20056;-80
2023/10/11 11:24:18;;;;;;;20.15;10.88;;;;;;;17.54;97.80;101354.91;5033348;28;20025;-80
2023/10/11 11:26:44;;;;;;;20.35;10.95;;;;;;;17.54;97.17;101368.03;5034505;28;20030;-80
2023/10/11 11:29:16;;;;;;;18.40;9.47;;;;;;;17.56;97.24;101362.75;5034314;28;20032;-80
2023/10/11 11:31:51;;;;;;;18.70;10.32;;;;;;;17.51;97.17;101354.16;5033968;28;20030;-80
2023/10/11 11:34:26;;;;;;;18.13;9.18;;;;;;;17.55;97.02;101346.13;5034085;28;20037;-80
2023/10/11 11:36:59;;;;;;;19.45;11.10;;;;;;;17.54;98.10;101333.91;5032801;28;20108;-80
2023/10/11 11:39:42;;;;;;;21.60;12.10;;;;;;;17.51;97.81;101333.16;5029405;28;20033;-80
2023/10/11 11:42:18;;;;;;;19.35;10.20;;;;;;;17.51;98.19;101326.13;5032035;28;20048;-80
2023/10/11 11:44:46;;;;;;;16.38;8.70;;;;;;;17.55;98.27;101316.41;5032483;28;20088;-80
2023/10/11 11:47:11;;;;;;;17.38;8.75;;;;;;;17.65;98.33;101333.53;5032629;28;20025;-80
2023/10/11 11:49:36;;;;;;;14.60;7.97;;;;;;;17.69;98.01;101324.59;5033748;28;20040;-80
2023/10/11 11:52:02;;;;;;;15.37;7.97;;;;;;;17.73;97.64;101325.38;5033645;28;20092;-84
2023/10/11 11:54:28;;;;;;;16.47;8.00;;;;;;;17.72;97.56;101311.38;5032921;28;20053;-85
2023/10/11 11:56:55;;;;;;;13.80;6.95;;;;;;;17.75;97.67;101321.75;5025225;28;20075;-84
2023/10/11 11:59:21;;;;;;;12.65;6.70;;;;;;;17.77;97.99;101308.56;5023480;28;20084;-84
2023/10/11 12:01:53;;;;;;;17.52;8.50;;;;;;;17.77;98.18;101305.94;5013398;28;20018;-85
2023/10/11 12:04:32;;;;;;;19.15;9.65;;;;;;;17.77;97.17;101291.97;5013051;28;20394;-87
2023/10/11 12:06:57;;;;;;;19.13;8.90;;;;;;;17.83;97.53;101281.22;5012884;28;20022;-86
2023/10/11 12:09:31;;;;;;;16.77;8.83;;;;;;;17.95;97.51;101286.00;5013536;28;20032;-86
2023/10/11 12:12:03;;;;;;;16.27;8.10;;;;;;;18.10;97.98;101278.47;5019015;28;20467;-85
2023/10/11 12:14:29;;;;;;;17.13;8.23;;;;;;;18.29;96.68;101262.81;5032205;28;20025;-86
2023/10/11 12:16:55;;;;;;;19.80;10.33;;;;;;;18.36;95.18;101261.63;5033514;28;20080;-86
2023/10/11 12:19:21;;;;;;;18.63;9.03;;;;;;;18.45;95.37;101274.38;5032921;28;20280;-85
2023/10/11 12:21:46;;;;;;;16.77;8.27;;;;;;;18.43;95.29;101281.47;5032347;28;20068;-83